createdAt,value
2018-06-04T00:00:10.322Z,19.07
2018-06-04T00:02:39.430Z,19.13
2018-06-04T00:05:08.558Z,20.67
2018-06-04T00:07:37.670Z,23.17
2018-06-04T00:10:06.798Z,21.57
2018-06-04T00:12:35.890Z,23.50
2018-06-04T00:15:05.040Z,18.10
2018-06-04T00:17:34.158Z,19.60
2018-06-04T00:23:00.753Z,20.17
2018-06-04T00:25:29.868Z,20.73
2018-06-04T00:27:58.946Z,22.50
2018-06-04T00:30:28.034Z,23.70
2018-06-04T00:32:57.154Z,18.20
2018-06-04T00:35:26.250Z,24.33
2018-06-04T00:37:55.357Z,21.13
2018-06-04T00:40:24.454Z,22.70
2018-06-04T00:42:53.561Z,22.47
2018-06-04T00:45:22.661Z,19.97
2018-06-04T00:47:51.753Z,19.23
2018-06-04T00:50:20.872Z,20.37
2018-06-04T00:52:49.957Z,21.33
2018-06-04T00:55:19.058Z,23.53
2018-06-04T00:57:48.154Z,21.50
2018-06-04T01:00:17.242Z,20.13
2018-06-04T01:02:46.366Z,25.30
2018-06-04T01:05:15.453Z,19.13
2018-06-04T01:07:44.557Z,24.87
2018-06-04T01:10:13.658Z,19.37
2018-06-04T01:12:42.749Z,21.90
2018-06-04T01:15:11.879Z,19.23
2018-06-04T01:17:40.985Z,21.80
2018-06-04T01:20:10.079Z,19.93
2018-06-04T01:22:39.178Z,23.47
2018-06-04T01:25:08.289Z,22.30
2018-06-04T01:27:37.459Z,18.87
2018-06-04T01:30:06.545Z,21.50
2018-06-04T01:32:35.636Z,22.50
2018-06-04T01:35:04.753Z,22.20
2018-06-04T01:37:33.846Z,21.80
2018-06-04T01:40:02.962Z,22.20
2018-06-04T01:42:32.073Z,20.17
2018-06-04T01:45:01.169Z,23.20
2018-06-04T01:47:30.273Z,25.10
2018-06-04T01:49:59.387Z,22.27
2018-06-04T01:52:28.510Z,23.27
2018-06-04T01:54:57.598Z,20.67
2018-06-04T01:57:26.677Z,20.87
2018-06-04T01:59:55.778Z,21.60
2018-06-04T02:02:24.873Z,21.93
2018-06-04T02:04:53.997Z,24.00
2018-06-04T02:07:30.969Z,21.07
2018-06-04T02:10:00.088Z,21.33
2018-06-04T02:12:29.217Z,18.93
2018-06-04T02:14:58.310Z,21.63
2018-06-04T02:17:27.413Z,21.37
2018-06-04T02:19:56.577Z,22.53
2018-06-04T02:22:25.729Z,22.97
2018-06-04T02:24:55.109Z,23.97
2018-06-04T02:27:24.221Z,23.17
2018-06-04T02:29:53.345Z,22.83
2018-06-04T02:32:22.429Z,21.77
2018-06-04T02:34:51.541Z,26.20
2018-06-04T02:37:20.633Z,23.07
2018-06-04T02:39:49.737Z,23.67
2018-06-04T02:42:18.837Z,20.97
2018-06-04T02:44:47.925Z,18.47
2018-06-04T02:47:17.034Z,19.50
2018-06-04T02:49:46.138Z,21.33
2018-06-04T02:52:15.214Z,24.23
2018-06-04T02:54:44.330Z,27.93
2018-06-04T02:57:13.434Z,20.00
2018-06-04T02:59:42.548Z,21.70
2018-06-04T03:02:11.650Z,23.50
2018-06-04T03:04:40.739Z,20.30
2018-06-04T03:07:09.870Z,20.50
2018-06-04T03:09:38.982Z,24.57
2018-06-04T03:12:08.098Z,21.90
2018-06-04T03:14:37.206Z,21.43
2018-06-04T03:17:06.296Z,20.27
2018-06-04T03:19:35.393Z,20.47
2018-06-04T03:22:04.497Z,24.00
2018-06-04T03:24:33.606Z,23.50
2018-06-04T03:27:02.720Z,22.20
2018-06-04T03:29:31.825Z,24.90
2018-06-04T03:32:01.014Z,25.10
2018-06-04T03:34:30.102Z,21.90
2018-06-04T03:36:59.250Z,21.03
2018-06-04T03:39:28.369Z,27.57
2018-06-04T03:41:57.504Z,26.70
2018-06-04T03:44:26.617Z,25.10
2018-06-04T03:46:55.745Z,26.07
2018-06-04T03:49:24.897Z,19.03
2018-06-04T03:51:53.997Z,26.43
2018-06-04T03:54:23.118Z,27.00
2018-06-04T03:56:52.233Z,22.83
2018-06-04T03:59:21.354Z,22.57
2018-06-04T04:01:50.549Z,22.33
2018-06-04T04:04:19.585Z,23.73
2018-06-04T04:06:48.697Z,24.70
2018-06-04T04:09:17.818Z,22.57
2018-06-04T04:11:46.922Z,24.43
2018-06-04T04:14:16.026Z,22.33
2018-06-04T04:16:45.102Z,24.33
2018-06-04T04:19:14.200Z,22.97
2018-06-04T04:21:43.318Z,22.37
2018-06-04T04:24:12.497Z,25.67
2018-06-04T04:26:41.619Z,23.03
2018-06-04T04:29:10.758Z,22.90
2018-06-04T04:31:39.821Z,26.13
2018-06-04T04:34:08.925Z,25.90
2018-06-04T04:36:38.025Z,23.33
2018-06-04T04:39:08.973Z,29.97
2018-06-04T04:41:38.061Z,27.37
2018-06-04T04:44:07.153Z,25.97
2018-06-04T04:46:36.308Z,24.03
2018-06-04T04:49:05.386Z,26.93
2018-06-04T04:51:34.490Z,27.33
2018-06-04T04:54:03.593Z,28.83
2018-06-04T04:56:32.702Z,28.30
2018-06-04T04:59:01.793Z,28.97
2018-06-04T05:01:30.913Z,23.73
2018-06-04T05:04:00.062Z,27.87
2018-06-04T05:06:29.187Z,23.20
2018-06-04T05:08:58.348Z,27.67
2018-06-04T05:11:27.465Z,29.47
2018-06-04T05:13:56.574Z,29.40
2018-06-04T05:16:25.706Z,27.43
2018-06-04T05:18:54.897Z,27.63
2018-06-04T05:21:24.206Z,28.97
2018-06-04T05:23:53.325Z,31.23
2018-06-04T05:26:22.458Z,28.50
2018-06-04T05:28:51.606Z,30.90
2018-06-04T05:31:20.710Z,28.00
2018-06-04T05:33:49.830Z,34.93
2018-06-04T05:36:18.930Z,34.00
2018-06-04T05:38:48.024Z,36.73
2018-06-04T05:41:17.515Z,31.37
2018-06-04T05:43:46.625Z,33.53
2018-06-04T05:46:15.701Z,35.07
2018-06-04T05:48:44.826Z,32.87
2018-06-04T05:51:13.933Z,31.63
2018-06-04T05:53:43.045Z,31.80
2018-06-04T05:56:12.194Z,37.83
2018-06-04T05:58:41.253Z,33.57
2018-06-04T06:01:10.366Z,33.80
2018-06-04T06:03:39.454Z,29.67
2018-06-04T06:06:08.558Z,30.10
2018-06-04T06:08:37.689Z,34.30
2018-06-04T06:11:06.909Z,30.73
2018-06-04T06:13:36.002Z,31.03
2018-06-04T06:16:05.109Z,33.00
2018-06-04T06:18:34.229Z,33.60
2018-06-04T06:21:03.339Z,33.07
2018-06-04T06:23:32.409Z,34.57
2018-06-04T06:26:01.518Z,30.63
2018-06-04T06:28:30.634Z,29.43
2018-06-04T06:30:59.757Z,31.43
2018-06-04T06:33:28.893Z,28.80
2018-06-04T06:35:57.990Z,30.37
2018-06-04T06:38:27.118Z,27.60
2018-06-04T06:40:56.249Z,31.77
2018-06-04T06:43:25.358Z,32.97
2018-06-04T06:45:54.446Z,29.50
2018-06-04T06:48:23.581Z,26.97
2018-06-04T06:50:52.697Z,27.57
2018-06-04T06:53:21.805Z,23.87
2018-06-04T06:55:50.934Z,25.67
2018-06-04T06:58:20.077Z,27.57
2018-06-04T07:00:49.170Z,24.37
2018-06-04T07:03:18.418Z,25.23
2018-06-04T07:05:47.533Z,25.03
2018-06-04T07:08:16.679Z,22.43
2018-06-04T07:10:45.821Z,23.20
2018-06-04T07:13:14.945Z,24.87
2018-06-04T07:15:44.063Z,21.13
2018-06-04T07:18:13.214Z,23.13
2018-06-04T07:20:42.334Z,19.83
2018-06-04T07:23:11.417Z,22.33
2018-06-04T07:25:40.521Z,22.77
2018-06-04T07:28:09.634Z,22.70
2018-06-04T07:30:38.729Z,21.50
2018-06-04T07:33:07.839Z,20.73
2018-06-04T07:35:36.962Z,25.40
2018-06-04T07:38:06.086Z,20.70
2018-06-04T07:40:35.189Z,24.07
2018-06-04T07:43:04.306Z,22.93
2018-06-04T07:45:33.425Z,23.73
2018-06-04T07:48:02.526Z,20.13
2018-06-04T07:50:31.618Z,18.87
2018-06-04T07:53:00.739Z,19.00
2018-06-04T07:55:29.837Z,17.90
2018-06-04T07:57:58.974Z,19.73
2018-06-04T08:00:28.101Z,19.23
2018-06-04T08:02:57.240Z,18.37
2018-06-04T08:05:26.362Z,20.50
2018-06-04T08:07:55.534Z,20.40
2018-06-04T08:10:24.671Z,20.27
2018-06-04T08:12:53.829Z,18.40
2018-06-04T08:15:22.886Z,17.70
2018-06-04T08:17:52.030Z,16.17
2018-06-04T08:20:21.112Z,17.67
2018-06-04T08:22:50.247Z,17.93
2018-06-04T08:25:19.338Z,14.83
2018-06-04T08:27:48.461Z,17.40
2018-06-04T08:30:17.582Z,17.90
2018-06-04T08:32:46.694Z,15.07
2018-06-04T08:35:15.813Z,16.37
2018-06-04T08:37:44.906Z,17.03
2018-06-04T08:40:14.076Z,16.43
2018-06-04T08:42:43.166Z,15.37
2018-06-04T08:45:12.266Z,16.33
2018-06-04T08:47:41.394Z,15.80
2018-06-04T08:50:10.494Z,14.77
2018-06-04T08:52:39.617Z,15.23
2018-06-04T08:55:08.762Z,16.30
2018-06-04T08:57:37.994Z,15.00
2018-06-04T09:00:07.238Z,15.40
2018-06-04T09:02:36.329Z,15.73
2018-06-04T09:05:05.534Z,15.20
2018-06-04T09:07:34.713Z,14.77
2018-06-04T09:10:03.832Z,15.80
2018-06-04T09:12:32.937Z,15.10
2018-06-04T09:15:02.074Z,15.90
2018-06-04T09:17:31.176Z,13.47
2018-06-04T09:20:00.297Z,15.93
2018-06-04T09:22:29.413Z,14.67
2018-06-04T09:24:58.550Z,14.73
2018-06-04T09:27:27.667Z,16.03
2018-06-04T09:29:56.781Z,16.87
2018-06-04T09:32:25.926Z,15.33
2018-06-04T09:34:55.046Z,13.37
2018-06-04T09:37:24.170Z,12.07
2018-06-04T09:39:53.263Z,13.03
2018-06-04T09:42:22.409Z,13.27
2018-06-04T09:44:51.530Z,12.27
2018-06-04T09:47:20.658Z,15.43
2018-06-04T09:49:49.773Z,15.37
2018-06-04T09:52:18.882Z,14.57
2018-06-04T09:54:47.981Z,12.63
2018-06-04T09:57:17.118Z,13.93
2018-06-04T09:59:46.218Z,14.13
2018-06-04T10:02:15.338Z,14.37
2018-06-04T10:04:44.459Z,17.43
2018-06-04T10:07:13.578Z,18.90
2018-06-04T10:09:42.694Z,14.57
2018-06-04T10:12:11.821Z,14.67
2018-06-04T10:14:40.942Z,13.57
2018-06-04T10:17:10.031Z,14.63
2018-06-04T10:19:39.137Z,16.53
2018-06-04T10:22:08.255Z,11.63
2018-06-04T10:24:37.338Z,12.50
2018-06-04T10:27:06.501Z,12.60
2018-06-04T10:29:35.610Z,14.23
2018-06-04T10:32:04.714Z,13.70
2018-06-04T10:34:33.837Z,12.83
2018-06-04T10:37:03.002Z,12.77
2018-06-04T10:39:32.102Z,13.10
2018-06-04T10:42:01.198Z,13.47
2018-06-04T10:47:27.694Z,11.90
2018-06-04T10:49:56.796Z,12.20
2018-06-04T10:52:26.853Z,11.77
2018-06-04T10:54:55.949Z,13.43
2018-06-04T10:57:25.093Z,11.87
2018-06-04T10:59:54.209Z,13.97
2018-06-04T11:02:23.301Z,12.50
2018-06-04T11:04:52.434Z,14.17
2018-06-04T11:07:21.554Z,12.90
2018-06-04T11:09:50.657Z,12.30
2018-06-04T11:12:19.802Z,11.20
2018-06-04T11:14:48.887Z,16.67
2018-06-04T11:17:18.010Z,13.67
2018-06-04T11:19:47.101Z,12.43
2018-06-04T11:22:16.214Z,13.43
2018-06-04T11:24:45.317Z,14.60
2018-06-04T11:27:14.419Z,12.53
2018-06-04T11:29:43.537Z,14.10
2018-06-04T11:32:12.633Z,13.93
2018-06-04T11:34:41.749Z,10.93
2018-06-04T11:37:10.853Z,12.93
2018-06-04T11:39:39.942Z,11.40
2018-06-04T11:42:09.049Z,11.50
2018-06-04T11:44:38.178Z,13.80
2018-06-04T11:47:07.258Z,10.80
2018-06-04T11:49:36.393Z,9.70
2018-06-04T11:52:05.490Z,10.03
2018-06-04T11:54:34.590Z,12.10
2018-06-04T11:57:03.693Z,19.17
2018-06-04T11:59:32.778Z,10.10
2018-06-04T12:02:01.877Z,12.03
2018-06-04T12:04:30.973Z,10.00
2018-06-04T12:07:00.194Z,10.63
2018-06-04T12:09:29.289Z,14.23
2018-06-04T12:11:58.433Z,12.80
2018-06-04T12:14:27.562Z,13.03
2018-06-04T12:16:56.677Z,12.20
2018-06-04T12:19:25.793Z,11.90
2018-06-04T12:21:54.898Z,10.47
2018-06-04T12:24:24.094Z,10.90
2018-06-04T12:26:54.253Z,10.10
2018-06-04T12:29:23.345Z,13.90
2018-06-04T12:31:52.518Z,14.23
2018-06-04T12:34:21.621Z,12.33
2018-06-04T12:36:50.738Z,10.53
2018-06-04T12:39:19.845Z,11.00
2018-06-04T12:41:48.941Z,9.33
2018-06-04T12:44:18.045Z,9.80
2018-06-04T12:46:47.193Z,9.53
2018-06-04T12:49:16.272Z,9.83
2018-06-04T12:51:45.378Z,9.57
2018-06-04T12:54:14.460Z,9.20
2018-06-04T12:56:43.580Z,9.83
2018-06-04T12:59:12.981Z,8.77
2018-06-04T13:01:42.085Z,9.60
2018-06-04T13:04:11.186Z,9.73
2018-06-04T13:06:40.265Z,8.70
2018-06-04T13:09:09.396Z,11.00
2018-06-04T13:11:38.505Z,8.70
2018-06-04T13:14:07.602Z,9.97
2018-06-04T13:16:36.746Z,9.73
2018-06-04T13:19:05.844Z,10.00
2018-06-04T13:21:34.975Z,8.53
2018-06-04T13:24:04.039Z,9.17
2018-06-04T13:26:33.118Z,7.77
2018-06-04T13:29:02.213Z,8.83
2018-06-04T13:31:31.292Z,7.40
2018-06-04T13:34:00.413Z,9.17
2018-06-04T13:36:29.545Z,9.00
2018-06-04T13:38:58.661Z,8.10
2018-06-04T13:41:27.829Z,8.63
2018-06-04T13:43:56.941Z,8.40
2018-06-04T13:46:26.412Z,6.90
2018-06-04T13:48:55.602Z,6.47
2018-06-04T13:51:24.722Z,7.30
2018-06-04T13:53:53.823Z,6.97
2018-06-04T13:56:22.983Z,7.43
2018-06-04T13:58:52.045Z,7.53
2018-06-04T14:01:21.172Z,6.57
2018-06-04T14:03:50.282Z,7.33
2018-06-04T14:06:19.379Z,6.93
2018-06-04T14:08:48.525Z,6.57
2018-06-04T14:11:17.647Z,8.13
2018-06-04T14:13:46.702Z,6.70
2018-06-04T14:16:15.794Z,8.13
2018-06-04T14:18:44.931Z,6.23
2018-06-04T14:21:14.044Z,5.37
2018-06-04T14:23:43.160Z,7.00
2018-06-04T14:26:12.276Z,6.93
2018-06-04T14:28:41.393Z,6.97
2018-06-04T14:31:10.491Z,6.40
2018-06-04T14:33:39.594Z,9.20
2018-06-04T14:36:08.690Z,7.13
2018-06-04T14:38:37.791Z,7.80
2018-06-04T14:41:06.869Z,6.43
2018-06-04T14:43:36.831Z,7.63
2018-06-04T14:46:05.901Z,7.23
2018-06-04T14:48:35.025Z,6.23
2018-06-04T14:51:04.114Z,7.53
2018-06-04T14:53:33.220Z,6.70
2018-06-04T14:56:02.309Z,6.73
2018-06-04T14:58:31.398Z,7.70
2018-06-04T15:01:00.520Z,7.50
2018-06-04T15:03:29.601Z,8.43
2018-06-04T15:05:58.837Z,6.27
2018-06-04T15:08:27.976Z,8.37
2018-06-04T15:10:57.061Z,7.57
2018-06-04T15:13:26.281Z,7.60
2018-06-04T15:15:55.383Z,8.03
2018-06-04T15:18:24.510Z,11.47
2018-06-04T15:20:53.635Z,8.37
2018-06-04T15:23:22.716Z,9.23
2018-06-04T15:25:51.842Z,7.30
2018-06-04T15:28:20.941Z,7.97
2018-06-04T15:30:50.061Z,7.20
2018-06-04T15:33:19.149Z,8.07
2018-06-04T15:35:48.287Z,6.50
2018-06-04T15:38:17.365Z,7.70
2018-06-04T15:40:46.465Z,8.10
2018-06-04T15:43:15.557Z,8.10
2018-06-04T15:45:44.661Z,7.77
2018-06-04T15:48:13.785Z,8.20
2018-06-04T15:50:42.894Z,8.30
2018-06-04T15:53:12.241Z,10.27
2018-06-04T15:55:41.337Z,7.57
2018-06-04T15:58:10.413Z,6.47
2018-06-04T16:00:39.513Z,6.57
2018-06-04T16:03:08.670Z,8.17
2018-06-04T16:05:37.725Z,6.60
2018-06-04T16:08:06.841Z,6.37
2018-06-04T16:10:35.953Z,6.93
2018-06-04T16:13:05.061Z,9.50
2018-06-04T16:15:34.169Z,7.57
2018-06-04T16:18:03.262Z,6.70
2018-06-04T16:20:32.357Z,8.73
2018-06-04T16:23:01.513Z,8.03
2018-06-04T16:25:30.614Z,7.90
2018-06-04T16:27:59.737Z,7.33
2018-06-04T16:30:28.841Z,7.33
2018-06-04T16:32:57.951Z,10.40
2018-06-04T16:35:27.065Z,7.57
2018-06-04T16:37:56.152Z,6.77
2018-06-04T16:40:25.266Z,7.77
2018-06-04T16:42:54.374Z,6.73
2018-06-04T16:45:23.777Z,6.60
2018-06-04T16:47:52.885Z,8.00
2018-06-04T16:50:22.037Z,7.97
2018-06-04T16:52:51.084Z,7.07
2018-06-04T16:55:20.185Z,9.67
2018-06-04T16:57:49.292Z,6.73
2018-06-04T17:00:18.385Z,7.67
2018-06-04T17:02:47.502Z,7.23
2018-06-04T17:05:16.573Z,8.37
2018-06-04T17:07:45.677Z,8.63
2018-06-04T17:10:14.782Z,7.23
2018-06-04T17:12:43.860Z,10.13
2018-06-04T17:15:12.973Z,8.23
2018-06-04T17:17:42.090Z,9.03
2018-06-04T17:20:11.209Z,10.73
2018-06-04T17:22:40.339Z,10.33
2018-06-04T17:25:09.436Z,8.53
2018-06-04T17:27:38.545Z,11.13
2018-06-04T17:30:07.669Z,10.17
2018-06-04T17:32:36.793Z,7.80
2018-06-04T17:35:05.893Z,8.87
2018-06-04T17:37:34.981Z,8.00
2018-06-04T17:40:04.169Z,9.07
2018-06-04T17:42:33.249Z,10.23
2018-06-04T17:45:02.408Z,7.40
2018-06-04T17:47:31.425Z,7.10
2018-06-04T17:50:00.537Z,9.27
2018-06-04T17:52:29.662Z,7.53
2018-06-04T17:54:58.791Z,8.60
2018-06-04T17:57:27.918Z,7.10
2018-06-04T17:59:57.015Z,9.97
2018-06-04T18:02:26.188Z,8.20
2018-06-04T18:04:55.618Z,12.40
2018-06-04T18:07:24.741Z,11.93
2018-06-04T18:09:53.833Z,11.70
2018-06-04T18:12:22.934Z,10.50
2018-06-04T18:14:52.137Z,11.63
2018-06-04T18:17:21.248Z,10.73
2018-06-04T18:19:50.349Z,11.53
2018-06-04T18:22:19.501Z,10.63
2018-06-04T18:24:48.589Z,11.10
2018-06-04T18:27:17.797Z,10.57
2018-06-04T18:29:46.849Z,11.83
2018-06-04T18:32:16.102Z,12.43
2018-06-04T18:34:45.482Z,13.87
2018-06-04T18:37:14.605Z,16.00
2018-06-04T18:39:43.746Z,12.60
2018-06-04T18:42:12.908Z,12.80
2018-06-04T18:44:42.028Z,13.67
2018-06-04T18:47:11.174Z,14.73
2018-06-04T18:49:40.287Z,14.57
2018-06-04T18:52:09.393Z,12.50
2018-06-04T18:54:38.501Z,15.40
2018-06-04T18:57:07.601Z,14.27
2018-06-04T18:59:36.718Z,11.47
2018-06-04T19:02:05.889Z,12.53
2018-06-04T19:04:36.117Z,15.93
2018-06-04T19:07:05.233Z,17.80
2018-06-04T19:09:34.325Z,13.80
2018-06-04T19:12:03.438Z,16.93
2018-06-04T19:14:32.540Z,15.20
2018-06-04T19:17:01.668Z,15.70
2018-06-04T19:19:30.796Z,16.50
2018-06-04T19:21:59.937Z,14.80
2018-06-04T19:24:29.061Z,12.23
2018-06-04T19:26:58.257Z,17.67
2018-06-04T19:29:27.305Z,14.17
2018-06-04T19:31:56.481Z,17.00
2018-06-04T19:34:25.604Z,15.13
2018-06-04T19:36:54.735Z,16.57
2018-06-04T19:39:23.840Z,14.03
2018-06-04T19:41:52.967Z,16.00
2018-06-04T19:44:22.066Z,17.60
2018-06-04T19:46:51.194Z,17.27
2018-06-04T19:49:20.312Z,16.27
2018-06-04T19:51:49.411Z,15.20
2018-06-04T19:54:18.527Z,14.07
2018-06-04T19:56:47.625Z,15.07
2018-06-04T19:59:16.729Z,14.67
2018-06-04T20:01:45.841Z,14.03
2018-06-04T20:04:14.953Z,14.07
2018-06-04T20:06:44.073Z,16.93
2018-06-04T20:09:13.189Z,17.43
2018-06-04T20:11:42.290Z,18.63
2018-06-04T20:14:11.381Z,16.03
2018-06-04T20:16:40.501Z,14.43
2018-06-04T20:19:09.617Z,15.47
2018-06-04T20:21:38.762Z,17.17
2018-06-04T20:24:07.877Z,15.00
2018-06-04T20:26:37.001Z,16.07
2018-06-04T20:29:06.110Z,15.33
2018-06-04T20:31:35.187Z,18.80
2018-06-04T20:34:04.320Z,19.73
2018-06-04T20:36:33.455Z,17.97
2018-06-04T20:39:02.533Z,16.83
2018-06-04T20:41:31.629Z,18.23
2018-06-04T20:44:00.736Z,19.00
2018-06-04T20:46:29.817Z,19.77
2018-06-04T20:48:58.944Z,19.10
2018-06-04T20:51:28.073Z,20.00
2018-06-04T20:53:57.162Z,16.60
2018-06-04T20:56:26.299Z,19.53
2018-06-04T20:58:55.394Z,24.90
2018-06-04T21:01:24.506Z,22.73
2018-06-04T21:03:53.605Z,23.83
2018-06-04T21:06:22.741Z,19.53
2018-06-04T21:08:52.153Z,20.30
2018-06-04T21:11:21.281Z,19.83
2018-06-04T21:13:50.419Z,21.50
2018-06-04T21:16:19.484Z,20.83
2018-06-04T21:18:48.594Z,21.30
2018-06-04T21:21:17.701Z,20.10
2018-06-04T21:23:46.817Z,19.40
2018-06-04T21:26:15.977Z,18.00
2018-06-04T21:28:45.069Z,21.90
2018-06-04T21:31:14.162Z,20.83
2018-06-04T21:33:43.293Z,21.20
2018-06-04T21:36:12.417Z,17.57
2018-06-04T21:38:41.549Z,20.47
2018-06-04T21:41:10.658Z,19.27
2018-06-04T21:43:39.773Z,17.90
2018-06-04T21:46:08.861Z,17.67
2018-06-04T21:48:38.017Z,20.57
2018-06-04T21:51:07.122Z,16.60
2018-06-04T21:53:36.221Z,16.57
2018-06-04T21:56:05.353Z,18.77
2018-06-04T21:58:34.454Z,20.60
2018-06-04T22:01:03.652Z,22.40
2018-06-04T22:03:32.745Z,20.80
2018-06-04T22:06:01.867Z,20.53
2018-06-04T22:08:31.033Z,23.70
2018-06-04T22:11:00.049Z,25.30
2018-06-04T22:13:29.185Z,20.80
2018-06-04T22:15:58.317Z,26.27
2018-06-04T22:18:27.437Z,23.03
2018-06-04T22:20:56.549Z,16.40
2018-06-04T22:23:25.657Z,20.00
2018-06-04T22:25:54.740Z,21.40
2018-06-04T22:28:23.863Z,20.87
2018-06-04T22:30:52.997Z,25.37
2018-06-04T22:33:22.114Z,23.40
2018-06-04T22:35:51.225Z,21.13
2018-06-04T22:38:20.321Z,21.27
2018-06-04T22:40:49.417Z,20.70
2018-06-04T22:43:18.553Z,23.27
2018-06-04T22:45:47.658Z,25.07
2018-06-04T22:48:16.736Z,25.07
2018-06-04T22:50:45.832Z,22.30
2018-06-04T22:53:14.935Z,22.13
2018-06-04T22:55:44.041Z,21.37
2018-06-04T22:58:13.142Z,18.73
2018-06-04T23:00:42.274Z,21.57
2018-06-04T23:03:11.368Z,18.93
2018-06-04T23:05:40.497Z,18.80
2018-06-04T23:08:09.597Z,17.90
2018-06-04T23:10:38.693Z,16.80
2018-06-04T23:13:07.796Z,24.67
2018-06-04T23:15:36.909Z,19.80
2018-06-04T23:18:06.026Z,19.07
2018-06-04T23:20:35.136Z,20.93
2018-06-04T23:23:04.285Z,20.23
2018-06-04T23:25:33.385Z,21.37
2018-06-04T23:28:02.498Z,20.70
2018-06-04T23:30:31.846Z,20.70
2018-06-04T23:33:00.958Z,22.40
2018-06-04T23:35:30.053Z,19.77
2018-06-04T23:37:59.173Z,20.37
2018-06-04T23:40:28.264Z,19.37
2018-06-04T23:42:57.360Z,18.77
2018-06-04T23:45:26.517Z,21.20
2018-06-04T23:47:55.617Z,22.43
2018-06-04T23:50:24.745Z,23.10
2018-06-04T23:52:53.860Z,22.47
2018-06-04T23:55:22.972Z,24.20
2018-06-04T23:57:52.078Z,20.20
